Time;durP1;ratioP1;P1;durP2;ratioP2;P2;SDS_P1;SDS_P2;PMS_P1;PMS_P2;Temp;Humidity;BMP_temperature;BMP_pressure;BME280_temperature;BME280_humidity;BME280_pressure;Samples;Min_cycle;Max_cycle;Signal;HPM_P1;HPM_P2
2022/03/25 00:04:04;;;;;;;44.20;21.60;;;;;;;7.96;41.60;100029.47;233808;1218;139806;-60
2022/03/25 00:09:07;;;;;;;44.50;23.00;;;;;;;8.07;41.27;100026.59;233747;1218;139109;-60
2022/03/25 00:14:11;;;;;;;43.80;24.70;;;;;;;8.14;41.17;100019.83;233838;1218;139230;-58
2022/03/25 00:19:14;;;;;;;45.40;25.20;;;;;;;8.13;40.93;100018.95;233797;1218;141295;-60
2022/03/25 00:24:17;;;;;;;51.50;27.10;;;;;;;8.14;41.17;100016.46;233828;1218;139924;-59
2022/03/25 00:29:19;;;;;;;52.10;27.20;;;;;;;8.14;41.06;100013.43;233938;1218;139466;-59
2022/03/25 00:34:22;;;;;;;55.30;26.20;;;;;;;8.14;41.26;100014.16;233808;1218;139343;-60
2022/03/25 00:39:26;;;;;;;63.30;29.80;;;;;;;8.05;41.18;100016.41;233685;1218;138882;-59
2022/03/25 00:44:29;;;;;;;63.40;31.20;;;;;;;7.93;41.41;100013.52;233703;1218;139589;-58
2022/03/25 00:49:32;;;;;;;58.70;30.20;;;;;;;7.87;41.51;100012.64;233855;1218;139877;-57
2022/03/25 00:54:36;;;;;;;60.20;31.10;;;;;;;7.83;41.45;100006.42;233900;1218;140287;-59
2022/03/25 00:59:39;;;;;;;62.20;32.20;;;;;;;7.80;41.57;99999.10;233921;1219;139476;-59
2022/03/25 01:04:43;;;;;;;64.50;32.90;;;;;;;7.75;41.28;99997.68;233857;1218;138995;-59
2022/03/25 01:09:46;;;;;;;62.10;32.10;;;;;;;7.60;41.67;99994.88;233831;1218;139167;-59
2022/03/25 01:14:49;;;;;;;67.40;33.10;;;;;;;7.35;41.94;99995.02;233880;1219;140043;-59
2022/03/25 01:19:52;;;;;;;67.40;34.30;;;;;;;7.15;42.19;99994.42;233834;1219;139229;-59
2022/03/25 01:24:55;;;;;;;66.40;34.30;;;;;;;6.97;42.44;99995.02;233872;1218;140363;-63
2022/03/25 01:29:58;;;;;;;52.70;27.30;;;;;;;6.85;42.68;99988.50;233994;1219;138946;-61
2022/03/25 01:35:01;;;;;;;60.90;32.20;;;;;;;6.90;42.95;99986.42;233840;1218;140232;-60
2022/03/25 01:40:09;;;;;;;69.80;34.80;;;;;;;6.85;43.06;99987.63;233718;1218;139642;-58
2022/03/25 01:45:12;;;;;;;64.10;33.90;;;;;;;6.71;42.95;99983.84;233754;1218;139426;-59
2022/03/25 01:50:20;;;;;;;72.90;33.90;;;;;;;6.60;42.96;99982.77;233774;1218;138706;-60
2022/03/25 01:55:27;;;;;;;65.30;32.40;;;;;;;6.45;43.29;99987.27;233805;1218;139517;-59
2022/03/25 02:00:31;;;;;;;63.60;31.90;;;;;;;6.25;43.58;99989.80;233825;1218;139960;-58
2022/03/25 02:05:35;;;;;;;60.50;31.40;;;;;;;6.14;43.82;99989.93;233586;1217;138763;-59
2022/03/25 02:10:39;;;;;;;50.00;25.40;;;;;;;6.17;43.80;99991.95;233887;1219;139782;-61
2022/03/25 02:15:47;;;;;;;47.60;24.10;;;;;;;6.29;44.08;99993.73;233786;1218;139287;-59
2022/03/25 02:20:50;;;;;;;44.30;22.90;;;;;;;6.41;43.85;99993.75;233808;1218;139305;-61
2022/03/25 02:25:56;;;;;;;42.20;22.40;;;;;;;6.52;43.53;99992.01;233693;1218;140925;-57
2022/03/25 02:30:59;;;;;;;44.30;23.20;;;;;;;6.60;43.50;99992.46;233777;1218;138984;-59
2022/03/25 02:36:02;;;;;;;41.80;21.10;;;;;;;6.68;43.28;99992.40;233762;1219;140314;-59
2022/03/25 02:41:06;;;;;;;39.40;22.00;;;;;;;6.72;43.34;99990.84;233747;1217;139957;-58
2022/03/25 02:46:09;;;;;;;46.30;22.50;;;;;;;6.75;43.36;99990.23;233898;1219;139524;-60
2022/03/25 02:51:12;;;;;;;39.30;22.00;;;;;;;6.77;43.28;99992.12;233796;1218;139067;-60
2022/03/25 02:56:15;;;;;;;41.30;21.90;;;;;;;6.75;42.95;99992.00;233840;1218;140288;-59
2022/03/25 03:01:18;;;;;;;48.00;22.80;;;;;;;6.72;43.39;100000.38;233802;1219;139881;-61
2022/03/25 03:06:22;;;;;;;44.40;23.70;;;;;;;6.69;43.12;100004.88;233691;1219;139378;-61
2022/03/25 03:11:25;;;;;;;44.80;25.40;;;;;;;6.67;43.24;100008.83;233807;1218;139644;-60
2022/03/25 03:16:27;;;;;;;45.00;25.00;;;;;;;6.62;43.37;100006.49;233932;1218;140851;-60
2022/03/25 03:21:31;;;;;;;51.90;25.00;;;;;;;6.57;43.21;100009.11;233813;1218;140416;-59
2022/03/25 03:26:34;;;;;;;46.00;25.60;;;;;;;6.52;43.36;100014.02;233742;1219;140037;-56
2022/03/25 03:31:37;;;;;;;50.90;25.40;;;;;;;6.51;43.44;100010.89;233802;1219;138890;-59
2022/03/25 03:36:41;;;;;;;55.90;27.70;;;;;;;6.48;43.29;100009.56;233777;1219;139181;-60
2022/03/25 03:41:43;;;;;;;60.70;30.40;;;;;;;6.43;43.43;100009.91;233708;1217;140024;-59
2022/03/25 03:46:46;;;;;;;59.80;30.30;;;;;;;6.36;43.70;100011.15;233950;1217;139778;-60
2022/03/25 03:51:49;;;;;;;59.40;30.40;;;;;;;6.28;43.82;100013.68;233684;1218;140019;-59
2022/03/25 03:56:52;;;;;;;66.50;31.20;;;;;;;6.22;43.57;100014.22;233775;1219;139001;-58
2022/03/25 04:01:55;;;;;;;61.30;32.00;;;;;;;6.17;44.16;100014.71;233826;1217;139110;-55
2022/03/25 04:06:58;;;;;;;69.00;32.80;;;;;;;6.13;44.36;100018.33;233464;1218;139337;-58
2022/03/25 04:12:01;;;;;;;60.70;32.50;;;;;;;6.08;44.25;100016.17;233601;1217;139810;-59
2022/03/25 04:17:05;;;;;;;66.90;34.60;;;;;;;6.04;44.38;100019.83;233855;1218;138778;-60
2022/03/25 04:22:08;;;;;;;67.60;34.80;;;;;;;6.00;44.75;100019.57;233958;1218;140068;-60
2022/03/25 04:27:11;;;;;;;67.70;34.60;;;;;;;5.99;44.58;100016.61;233807;1218;139458;-60
2022/03/25 04:32:14;;;;;;;64.00;32.30;;;;;;;6.02;44.78;100014.60;233739;1219;139270;-62
2022/03/25 04:37:17;;;;;;;63.10;32.00;;;;;;;6.04;44.64;100014.70;233713;1219;139755;-59
2022/03/25 04:42:20;;;;;;;62.70;32.30;;;;;;;6.05;44.64;100015.40;233850;1218;139095;-60
2022/03/25 04:47:23;;;;;;;59.70;30.30;;;;;;;6.01;44.60;100016.05;233871;1217;139052;-60
2022/03/25 04:52:26;;;;;;;50.00;28.70;;;;;;;5.97;44.61;100017.54;233931;1218;140913;-60
2022/03/25 04:57:29;;;;;;;53.60;28.00;;;;;;;5.94;44.68;100023.63;233842;1218;139066;-62
2022/03/25 05:02:32;;;;;;;52.80;29.10;;;;;;;5.91;44.94;100029.48;233737;1218;139922;-62
2022/03/25 05:07:40;;;;;;;50.60;27.80;;;;;;;5.90;44.81;100034.07;233814;1219;139487;-60
2022/03/25 05:12:45;;;;;;;58.30;29.30;;;;;;;5.94;45.04;100038.06;233602;1218;139181;-59
2022/03/25 05:17:51;;;;;;;57.00;28.00;;;;;;;5.95;44.83;100042.98;233865;1219;138776;-60
2022/03/25 05:22:55;;;;;;;55.20;29.00;;;;;;;5.90;45.07;100046.39;233954;1219;139463;-60
2022/03/25 05:27:58;;;;;;;64.90;33.30;;;;;;;5.92;45.10;100052.19;233787;1219;138929;-61
2022/03/25 05:33:02;;;;;;;68.70;35.40;;;;;;;5.96;45.37;100062.14;233622;1219;139692;-60
2022/03/25 05:38:06;;;;;;;65.30;35.10;;;;;;;5.98;45.36;100067.37;233803;1219;139581;-60
2022/03/25 05:43:09;;;;;;;72.80;36.50;;;;;;;5.99;45.35;100072.98;233814;1218;139568;-59
2022/03/25 05:48:12;;;;;;;76.40;39.50;;;;;;;6.02;45.60;100076.07;233822;1218;139654;-57
2022/03/25 05:53:15;;;;;;;73.90;40.20;;;;;;;6.06;45.81;100075.77;233864;1219;139718;-55
2022/03/25 05:58:18;;;;;;;85.10;40.60;;;;;;;6.15;45.87;100082.59;233936;1219;139069;-59
2022/03/25 06:03:21;;;;;;;79.90;39.10;;;;;;;6.24;45.83;100085.35;233695;1219;139570;-59
2022/03/25 06:08:24;;;;;;;78.00;41.70;;;;;;;6.32;46.02;100088.98;233736;1218;139357;-60
2022/03/25 06:13:28;;;;;;;75.80;40.70;;;;;;;6.43;45.90;100090.81;233744;1218;138676;-58
2022/03/25 06:18:31;;;;;;;83.20;42.00;;;;;;;6.51;45.69;100092.52;233500;1217;139417;-60
2022/03/25 06:23:39;;;;;;;80.90;43.40;;;;;;;6.59;46.05;100089.13;233699;1217;140816;-59
2022/03/25 06:28:42;;;;;;;88.60;43.90;;;;;;;6.63;46.05;100093.23;233777;1218;139153;-60
2022/03/25 06:33:45;;;;;;;87.60;42.70;;;;;;;6.70;46.00;100097.77;233615;1219;138632;-60
2022/03/25 06:38:49;;;;;;;82.90;42.00;;;;;;;6.79;45.82;100098.23;233805;1217;139603;-62
2022/03/25 06:43:51;;;;;;;195.30;106.40;;;;;;;6.95;46.34;100099.50;233817;1218;139457;-61
2022/03/25 06:48:55;;;;;;;76.00;40.30;;;;;;;7.21;45.97;100090.42;233784;1217;139639;-60
2022/03/25 06:53:58;;;;;;;73.10;39.20;;;;;;;7.41;46.08;100095.09;233780;1218;139392;-60
2022/03/25 06:59:02;;;;;;;93.70;47.70;;;;;;;7.61;45.87;100096.02;233640;1218;141666;-61
2022/03/25 07:04:06;;;;;;;151.20;78.80;;;;;;;7.86;45.93;100101.55;233964;1218;139063;-60
2022/03/25 07:09:09;;;;;;;95.40;51.90;;;;;;;8.13;45.79;100096.20;233792;1217;139518;-60
2022/03/25 07:14:12;;;;;;;91.30;48.60;;;;;;;8.31;45.22;100096.96;233780;1217;139196;-59
2022/03/25 07:19:15;;;;;;;157.90;92.70;;;;;;;8.46;45.04;100098.79;233326;1218;139442;-61
2022/03/25 07:24:18;;;;;;;103.20;52.60;;;;;;;8.69;45.41;100094.55;233769;1218;140008;-59
2022/03/25 07:29:21;;;;;;;94.80;50.60;;;;;;;8.87;44.95;100098.13;233309;1219;139957;-56
2022/03/25 07:34:24;;;;;;;167.30;101.70;;;;;;;8.96;44.63;100102.73;233786;1217;139919;-59
2022/03/25 07:39:28;;;;;;;98.00;50.50;;;;;;;9.13;44.57;100100.64;233729;1217;138986;-56
2022/03/25 07:44:31;;;;;;;91.20;47.80;;;;;;;9.32;44.37;100102.95;233808;1217;139151;-58
2022/03/25 07:49:35;;;;;;;89.70;46.20;;;;;;;9.49;44.05;100103.29;233718;1217;139121;-58
2022/03/25 07:54:38;;;;;;;91.10;48.00;;;;;;;9.62;43.78;100107.38;233721;1217;139370;-58
2022/03/25 07:59:41;;;;;;;86.70;46.30;;;;;;;9.78;43.59;100105.87;233747;1217;139473;-57
2022/03/25 08:04:44;;;;;;;88.60;44.50;;;;;;;9.93;43.28;100108.75;233791;1218;138923;-57
2022/03/25 08:09:47;;;;;;;91.00;44.20;;;;;;;10.09;43.15;100109.86;233757;1217;140600;-59
2022/03/25 08:14:50;;;;;;;88.10;45.60;;;;;;;10.30;42.98;100109.67;233651;1219;139619;-58
2022/03/25 08:19:54;;;;;;;80.40;45.10;;;;;;;10.53;42.76;100110.42;233739;1217;140618;-58
2022/03/25 08:30:20;;;;;;;75.70;41.80;;;;;;;10.98;42.15;100110.88;233593;1218;140754;-57
2022/03/25 08:35:27;;;;;;;76.60;40.00;;;;;;;11.16;42.02;100108.23;233588;1219;139526;-57
2022/03/25 08:40:32;;;;;;;78.20;42.20;;;;;;;11.33;41.93;100107.80;233475;1217;140311;-60
2022/03/25 08:45:36;;;;;;;69.60;39.10;;;;;;;11.52;41.64;100102.81;233548;1219;139660;-57
2022/03/25 08:50:39;;;;;;;56.80;32.00;;;;;;;11.77;41.18;100099.61;233737;1217;139093;-57
2022/03/25 08:55:42;;;;;;;56.90;30.50;;;;;;;11.92;40.80;100098.34;233726;1218;139395;-59
2022/03/25 09:00:45;;;;;;;45.90;24.20;;;;;;;12.14;40.77;100092.27;233563;1217;139849;-59
2022/03/25 09:05:48;;;;;;;41.80;18.20;;;;;;;12.32;40.12;100085.97;233720;1217;140246;-56
2022/03/25 09:10:53;;;;;;;30.30;15.80;;;;;;;12.50;39.78;100087.88;233763;1217;142410;-59
2022/03/25 09:15:56;;;;;;;265.40;175.00;;;;;;;12.67;38.96;100081.79;233685;1217;140446;-59
2022/03/25 09:20:59;;;;;;;34.00;19.60;;;;;;;12.89;38.82;100078.13;233736;1217;139528;-57
2022/03/25 09:26:02;;;;;;;33.30;16.20;;;;;;;13.04;38.05;100073.88;233629;1217;141408;-59
2022/03/25 09:31:05;;;;;;;37.20;17.80;;;;;;;13.21;38.05;100072.80;233730;1218;139167;-59
2022/03/25 09:36:09;;;;;;;102.70;64.20;;;;;;;13.39;37.70;100068.02;233550;1219;140096;-57
2022/03/25 09:41:12;;;;;;;14.30;7.60;;;;;;;13.65;37.39;100069.90;233617;1217;141065;-59
2022/03/25 09:46:15;;;;;;;10.30;6.10;;;;;;;13.78;36.83;100068.29;233426;1217;140281;-58
2022/03/25 09:51:18;;;;;;;15.50;5.40;;;;;;;13.96;36.67;100065.61;233121;1217;139662;-59
2022/03/25 09:56:21;;;;;;;8.50;4.50;;;;;;;14.12;35.79;100064.66;233074;1217;139008;-59
2022/03/25 10:01:24;;;;;;;11.40;4.80;;;;;;;14.30;35.77;100068.55;233145;1217;139462;-59
2022/03/25 10:06:27;;;;;;;12.30;5.20;;;;;;;14.46;35.35;100061.90;233277;1217;139960;-59
2022/03/25 10:11:31;;;;;;;74.60;49.10;;;;;;;15.05;37.76;100063.84;233082;1218;139263;-60
2022/03/25 10:16:34;;;;;;;48.40;29.70;;;;;;;16.45;39.09;100057.05;233317;1217;140609;-59
2022/03/25 10:21:57;;;;;;;24.80;16.10;;;;;;;17.67;38.20;100051.66;233162;1217;140583;-60
2022/03/25 10:27:05;;;;;;;16.70;7.80;;;;;;;18.63;36.91;100054.46;233237;1219;142364;-61
2022/03/25 10:32:11;;;;;;;11.70;5.40;;;;;;;19.25;35.80;100049.53;233269;1217;141250;-58
2022/03/25 10:37:14;;;;;;;9.10;4.30;;;;;;;19.65;34.65;100040.13;233234;1217;139602;-60
2022/03/25 10:42:18;;;;;;;27.30;13.80;;;;;;;19.63;33.22;100035.54;232988;1217;139441;-59
2022/03/25 10:47:24;;;;;;;11.00;5.60;;;;;;;19.50;32.90;100034.88;233121;1217;139325;-58
2022/03/25 10:52:36;;;;;;;7.00;4.40;;;;;;;19.52;32.06;100038.77;233304;1217;139857;-60
2022/03/25 10:57:51;;;;;;;13.00;4.60;;;;;;;19.52;31.59;100039.19;233625;1217;139628;-59
2022/03/25 11:02:55;;;;;;;14.70;7.70;;;;;;;19.14;30.63;100029.55;233658;1217;139251;-58
2022/03/25 11:08:00;;;;;;;13.70;6.70;;;;;;;18.79;30.75;100030.02;233609;1218;139812;-59
2022/03/25 11:13:04;;;;;;;;;;;;;;;18.54;30.99;100028.79;233554;1219;139098;-60
2022/03/25 11:18:08;;;;;;;10.60;5.50;;;;;;;18.36;31.05;100021.44;233806;1218;125483;-60
2022/03/25 11:23:23;;;;;;;17.00;6.90;;;;;;;18.26;31.14;100026.63;233732;1217;139677;-60
2022/03/25 11:28:32;;;;;;;12.70;6.50;;;;;;;18.26;31.21;100025.55;233762;1217;140314;-59
2022/03/25 11:34:10;;;;;;;14.20;6.80;;;;;;;18.29;31.31;100015.26;233733;1218;138749;-58
2022/03/25 11:39:21;;;;;;;14.00;6.50;;;;;;;18.30;31.20;100009.45;233679;1218;139990;-60
2022/03/25 11:44:25;;;;;;;12.40;6.50;;;;;;;18.37;30.88;100008.36;233762;1217;139294;-59
2022/03/25 11:49:31;;;;;;;13.80;6.90;;;;;;;18.41;30.91;99999.80;233767;1218;139232;-59
2022/03/25 11:54:42;;;;;;;9.70;5.80;;;;;;;18.57;30.97;100000.48;233724;1219;139172;-59
2022/03/25 11:59:47;;;;;;;9.70;5.60;;;;;;;18.78;31.46;99992.69;233748;1218;139316;-60
2022/03/25 12:04:51;;;;;;;10.80;5.80;;;;;;;19.13;31.92;99985.52;233778;1218;139139;-60
2022/03/25 12:09:54;;;;;;;9.60;5.50;;;;;;;19.34;31.41;99982.67;233611;1217;139652;-60
2022/03/25 12:15:10;;;;;;;12.10;5.30;;;;;;;19.61;31.66;99975.42;233663;1218;139910;-60
2022/03/25 12:20:13;;;;;;;9.20;5.80;;;;;;;19.92;31.63;99962.52;233601;1218;139379;-58
2022/03/25 12:25:18;;;;;;;11.10;5.10;;;;;;;20.17;31.27;99956.40;233491;1219;139193;-59
2022/03/25 12:30:22;;;;;;;15.30;6.20;;;;;;;20.34;31.20;99958.33;233673;1219;139582;-60
2022/03/25 12:35:29;;;;;;;9.20;5.70;;;;;;;20.45;30.36;99943.63;233619;1217;139865;-59
2022/03/25 12:40:34;;;;;;;10.90;5.70;;;;;;;20.54;30.59;99932.44;233816;1219;139160;-59
2022/03/25 12:45:37;;;;;;;13.60;6.90;;;;;;;20.73;30.41;99933.95;233708;1218;139289;-59
2022/03/25 12:50:45;;;;;;;11.20;5.60;;;;;;;20.78;30.05;99928.13;233737;1219;140701;-58
2022/03/25 12:55:48;;;;;;;10.80;5.20;;;;;;;20.91;30.02;99928.16;233738;1217;139057;-58
2022/03/25 13:00:54;;;;;;;9.70;5.70;;;;;;;21.03;30.24;99919.88;233677;1217;139334;-60
2022/03/25 13:05:57;;;;;;;10.90;5.80;;;;;;;21.18;30.20;99917.98;233806;1219;139361;-60
2022/03/25 13:11:00;;;;;;;11.00;5.20;;;;;;;21.25;29.91;99909.70;233998;1217;139415;-60
2022/03/25 13:16:10;;;;;;;9.90;5.30;;;;;;;21.42;29.87;99908.15;233210;1217;139184;-59
2022/03/25 13:21:13;;;;;;;8.30;5.50;;;;;;;21.61;29.52;99910.06;233669;1217;139297;-58
2022/03/25 13:26:16;;;;;;;8.40;4.70;;;;;;;21.62;28.68;99907.98;233712;1219;140737;-58
2022/03/25 13:31:19;;;;;;;11.30;5.90;;;;;;;21.71;29.02;99901.15;233780;1218;138918;-61
2022/03/25 13:36:26;;;;;;;14.60;5.70;;;;;;;21.82;28.93;99892.98;233810;1219;139762;-60
2022/03/25 13:41:28;;;;;;;8.50;5.70;;;;;;;21.95;29.14;99896.12;233830;1219;139164;-60
2022/03/25 13:46:36;;;;;;;12.00;5.70;;;;;;;22.04;29.03;99891.67;233804;1219;139283;-60
2022/03/25 13:51:43;;;;;;;6.80;4.70;;;;;;;22.11;28.93;99884.64;233874;1219;139408;-61
2022/03/25 13:56:51;;;;;;;10.50;5.60;;;;;;;22.22;29.13;99880.95;233817;1218;138743;-60
2022/03/25 14:01:54;;;;;;;13.00;5.50;;;;;;;22.17;28.80;99877.17;233715;1217;140109;-60
2022/03/25 14:07:02;;;;;;;10.70;5.20;;;;;;;21.97;28.85;99872.77;233752;1219;139627;-60
2022/03/25 14:12:22;;;;;;;10.00;5.90;;;;;;;21.62;28.81;99875.09;233451;1219;139333;-59
2022/03/25 14:17:41;;;;;;;9.90;5.50;;;;;;;21.21;28.89;99879.59;233663;1218;139324;-60
2022/03/25 14:22:50;;;;;;;11.80;6.10;;;;;;;20.86;29.01;99872.34;233809;1218;138880;-60
2022/03/25 14:27:59;;;;;;;8.30;5.70;;;;;;;20.58;28.93;99872.02;233499;1218;139328;-59
2022/03/25 14:33:03;;;;;;;14.70;5.80;;;;;;;20.28;29.08;99868.95;233426;1219;139159;-59
2022/03/25 14:38:07;;;;;;;9.00;5.30;;;;;;;20.08;29.29;99866.55;233781;1217;138688;-60
2022/03/25 14:43:10;;;;;;;16.60;6.30;;;;;;;19.92;29.70;99864.17;233482;1217;139037;-58
2022/03/25 14:48:13;;;;;;;9.80;5.60;;;;;;;19.78;29.56;99859.42;233790;1218;140555;-59
2022/03/25 14:53:16;;;;;;;12.80;6.20;;;;;;;19.62;29.97;99856.52;233710;1218;138654;-58
2022/03/25 14:58:20;;;;;;;10.50;6.40;;;;;;;19.51;30.13;99856.73;233916;1217;139525;-59
2022/03/25 15:03:23;;;;;;;14.30;6.80;;;;;;;19.34;30.08;99857.44;233379;1219;139726;-58
2022/03/25 15:08:26;;;;;;;21.30;8.00;;;;;;;19.17;29.68;99856.02;233775;1218;139368;-60
2022/03/25 15:13:29;;;;;;;18.90;7.80;;;;;;;18.94;29.06;99855.09;233710;1217;140801;-59
2022/03/25 15:18:32;;;;;;;16.60;9.20;;;;;;;18.72;28.94;99857.95;233650;1218;139562;-60
2022/03/25 15:23:35;;;;;;;16.00;7.90;;;;;;;18.53;28.86;99854.13;233580;1217;139705;-59
2022/03/25 15:28:38;;;;;;;16.80;7.80;;;;;;;18.36;28.80;99854.46;233717;1217;143017;-60
2022/03/25 15:39:59;;;;;;;22.40;8.00;;;;;;;17.98;28.89;99850.53;233485;1219;138778;-60
2022/03/25 15:44:47;;;;;;;16.50;8.70;;;;;;;17.85;29.33;99854.80;233242;1219;139450;-58
2022/03/25 15:49:50;;;;;;;18.80;9.50;;;;;;;17.77;29.39;99857.73;233212;1217;140012;-58
2022/03/25 15:54:53;;;;;;;17.50;9.10;;;;;;;17.65;29.47;99849.49;233235;1218;139424;-60
2022/03/25 15:59:59;;;;;;;18.90;10.00;;;;;;;17.55;29.40;99848.13;233157;1217;139732;-59
2022/03/25 16:05:02;;;;;;;17.90;10.60;;;;;;;17.45;29.89;99857.34;233296;1217;139549;-57
2022/03/25 16:10:07;;;;;;;20.00;10.20;;;;;;;17.32;29.72;99859.98;232909;1217;139634;-57
2022/03/25 16:15:12;;;;;;;22.30;11.00;;;;;;;17.20;29.89;99861.57;233105;1217;140278;-60
2022/03/25 16:20:15;;;;;;;22.50;11.50;;;;;;;17.11;29.78;99864.29;233111;1218;140428;-59
2022/03/25 16:25:20;;;;;;;21.90;11.80;;;;;;;16.99;29.78;99858.69;232884;1218;139013;-59
2022/03/25 16:30:23;;;;;;;20.90;11.00;;;;;;;16.89;29.85;99856.42;233156;1217;141509;-59
2022/03/25 16:35:26;;;;;;;25.10;12.50;;;;;;;16.82;29.85;99868.05;233511;1217;139264;-59
2022/03/25 16:40:31;;;;;;;25.20;12.10;;;;;;;16.69;30.20;99868.45;233828;1219;139459;-58
2022/03/25 16:45:35;;;;;;;23.20;11.10;;;;;;;16.55;30.31;99872.03;233687;1217;139581;-59
2022/03/25 16:50:38;;;;;;;28.80;14.40;;;;;;;16.40;30.49;99877.59;233638;1219;139785;-59
2022/03/25 16:55:41;;;;;;;32.20;13.80;;;;;;;16.22;30.71;99874.39;233712;1218;140224;-58
2022/03/25 17:00:44;;;;;;;23.60;11.90;;;;;;;16.06;30.85;99876.27;233720;1219;139282;-59
2022/03/25 17:05:47;;;;;;;51.40;29.60;;;;;;;16.02;33.07;99880.48;233715;1219;139552;-60
2022/03/25 17:10:50;;;;;;;26.50;12.50;;;;;;;16.16;31.85;99886.99;233690;1218;139517;-60
2022/03/25 17:15:53;;;;;;;34.00;13.10;;;;;;;15.98;31.56;99887.55;233623;1219;139585;-59
2022/03/25 17:20:57;;;;;;;44.30;14.00;;;;;;;15.78;31.50;99891.25;233735;1219;140380;-59
2022/03/25 17:26:03;;;;;;;37.20;13.20;;;;;;;15.61;31.66;99894.77;233726;1219;139290;-59
2022/03/25 17:31:06;;;;;;;38.70;15.20;;;;;;;15.42;31.92;99900.54;233701;1218;139414;-58
2022/03/25 17:36:13;;;;;;;52.10;16.10;;;;;;;15.24;32.08;99904.96;233674;1219;140395;-59
2022/03/25 17:41:16;;;;;;;38.00;16.00;;;;;;;15.07;32.38;99903.83;233667;1219;139674;-58
2022/03/25 17:46:20;;;;;;;46.00;13.90;;;;;;;14.92;32.17;99908.94;233808;1219;139548;-58
2022/03/25 17:51:23;;;;;;;34.40;13.70;;;;;;;14.75;32.56;99911.46;233677;1218;139377;-59
2022/03/25 17:56:27;;;;;;;36.70;15.00;;;;;;;14.57;32.83;99917.81;233594;1219;139385;-59
2022/03/25 18:01:30;;;;;;;36.40;16.20;;;;;;;14.43;32.80;99914.36;233698;1219;139835;-59
2022/03/25 18:06:34;;;;;;;43.60;18.60;;;;;;;14.32;33.21;99919.54;233726;1217;139755;-59
2022/03/25 18:11:37;;;;;;;44.10;19.10;;;;;;;14.21;33.12;99915.24;233655;1217;139661;-60
2022/03/25 18:16:40;;;;;;;197.30;118.80;;;;;;;14.09;33.29;99922.98;233843;1218;139071;-59
2022/03/25 18:21:43;;;;;;;62.20;30.30;;;;;;;14.01;33.61;99931.15;233538;1218;140598;-60
2022/03/25 18:26:46;;;;;;;43.60;22.00;;;;;;;13.88;34.01;99934.27;233693;1218;139644;-60
2022/03/25 18:31:51;;;;;;;41.50;20.30;;;;;;;13.75;33.78;99933.45;233652;1217;140017;-60
2022/03/25 18:36:54;;;;;;;43.70;20.90;;;;;;;13.63;33.92;99941.48;233619;1218;139447;-60
2022/03/25 18:42:00;;;;;;;45.20;20.40;;;;;;;13.51;34.42;99944.70;233670;1218;139375;-61
2022/03/25 18:47:04;;;;;;;48.00;20.00;;;;;;;13.36;34.85;99950.39;233797;1217;139379;-60
2022/03/25 18:52:07;;;;;;;62.10;20.50;;;;;;;13.19;35.67;99956.20;233626;1219;139363;-59
2022/03/25 18:57:10;;;;;;;58.50;21.10;;;;;;;13.03;36.30;99961.35;233678;1219;140253;-59
2022/03/25 19:02:13;;;;;;;66.00;20.70;;;;;;;12.87;36.07;99966.37;233382;1217;140446;-60
2022/03/25 19:07:17;;;;;;;77.60;20.70;;;;;;;12.74;36.43;99968.15;233257;1217;139842;-59
2022/03/25 19:12:20;;;;;;;73.80;21.80;;;;;;;12.60;37.00;99970.74;233149;1217;139798;-58
2022/03/25 19:17:23;;;;;;;83.70;22.90;;;;;;;12.46;37.04;99972.77;233095;1217;139688;-59
2022/03/25 19:22:26;;;;;;;83.90;26.30;;;;;;;12.33;36.92;99972.91;233272;1217;139376;-60
2022/03/25 19:27:29;;;;;;;84.30;28.90;;;;;;;12.19;37.35;99974.95;233278;1217;139366;-59
2022/03/25 19:32:32;;;;;;;87.40;29.80;;;;;;;12.03;37.74;99980.77;233689;1217;140366;-60
2022/03/25 19:37:35;;;;;;;80.40;29.70;;;;;;;11.90;37.83;99977.55;233688;1218;139750;-59
2022/03/25 19:42:40;;;;;;;84.50;34.70;;;;;;;11.79;38.89;99981.97;233665;1217;139903;-59
2022/03/25 19:47:44;;;;;;;97.00;36.70;;;;;;;11.69;38.31;99981.96;233614;1218;140005;-60
2022/03/25 19:52:47;;;;;;;79.90;35.70;;;;;;;11.54;38.63;99980.77;233784;1219;139427;-58
2022/03/25 19:57:50;;;;;;;87.40;38.10;;;;;;;11.42;39.13;99984.95;233616;1219;139257;-61
2022/03/25 20:02:58;;;;;;;91.00;39.50;;;;;;;11.28;39.19;99987.23;233598;1219;139687;-60
2022/03/25 20:08:04;;;;;;;87.60;37.70;;;;;;;11.15;39.25;99988.06;233625;1215;141567;-58
2022/03/25 20:13:11;;;;;;;92.40;37.90;;;;;;;11.04;39.33;99992.69;233692;1217;139817;-61
2022/03/25 20:18:15;;;;;;;75.90;37.00;;;;;;;10.93;39.75;99999.27;233676;1219;139628;-61
2022/03/25 20:23:18;;;;;;;106.30;38.90;;;;;;;10.83;39.79;99996.71;233608;1217;140155;-60
2022/03/25 20:28:23;;;;;;;79.00;36.80;;;;;;;10.75;39.91;100001.88;233784;1220;139743;-60
2022/03/25 20:33:26;;;;;;;79.70;36.50;;;;;;;10.67;40.52;100003.52;233521;1217;139548;-60
2022/03/25 20:38:29;;;;;;;74.60;35.70;;;;;;;10.58;40.42;100003.92;233507;1219;139878;-60
2022/03/25 20:43:32;;;;;;;76.40;33.90;;;;;;;10.50;40.77;100009.08;233513;1217;140795;-60
2022/03/25 20:48:35;;;;;;;81.70;35.10;;;;;;;10.41;40.93;100008.09;233579;1218;138955;-59
2022/03/25 20:53:38;;;;;;;82.70;34.90;;;;;;;10.33;41.05;100013.05;233584;1217;139735;-60
2022/03/25 20:58:42;;;;;;;70.20;31.30;;;;;;;10.27;41.36;100009.95;233678;1219;139212;-60
2022/03/25 21:03:45;;;;;;;122.80;69.70;;;;;;;10.23;41.41;100006.23;233500;1220;139650;-59
2022/03/25 21:08:48;;;;;;;69.70;35.40;;;;;;;10.29;41.72;100006.67;233480;1220;139688;-59
2022/03/25 21:13:51;;;;;;;66.80;29.40;;;;;;;10.40;41.58;100012.21;233549;1219;140363;-59
2022/03/25 21:18:55;;;;;;;67.50;30.20;;;;;;;10.33;41.70;100014.98;233607;1219;139326;-59
2022/03/25 21:23:58;;;;;;;66.70;31.60;;;;;;;10.23;41.87;100024.15;233616;1219;139614;-60
2022/03/25 21:29:01;;;;;;;57.40;28.40;;;;;;;10.16;41.94;100024.60;233615;1219;139539;-60
2022/03/25 21:34:04;;;;;;;52.50;27.20;;;;;;;10.27;41.28;100026.98;233553;1220;139599;-59
2022/03/25 21:39:08;;;;;;;57.20;26.50;;;;;;;10.40;41.13;100030.63;233497;1219;139761;-59
2022/03/25 21:44:11;;;;;;;68.50;32.80;;;;;;;10.55;41.21;100033.88;233630;1219;139355;-62
2022/03/25 21:49:14;;;;;;;62.90;27.80;;;;;;;10.62;41.03;100037.81;233311;1217;139639;-58
2022/03/25 21:54:17;;;;;;;50.10;24.10;;;;;;;10.64;40.67;100041.42;233080;1217;140112;-58
2022/03/25 21:59:20;;;;;;;47.10;25.20;;;;;;;10.72;40.00;100041.61;233146;1217;140269;-60
2022/03/25 22:04:26;;;;;;;50.90;24.30;;;;;;;10.78;39.95;100039.92;233283;1218;140410;-59
2022/03/25 22:09:29;;;;;;;46.00;25.60;;;;;;;10.84;39.40;100039.98;232831;1217;140994;-59
2022/03/25 22:14:36;;;;;;;57.10;29.70;;;;;;;10.87;39.35;100041.98;232706;1217;141066;-58
2022/03/25 22:19:46;;;;;;;123.20;75.60;;;;;;;10.89;39.42;100045.08;232737;1217;139756;-60
2022/03/25 22:24:49;;;;;;;67.60;34.50;;;;;;;10.98;39.49;100046.60;232511;1217;140455;-59
2022/03/25 22:29:52;;;;;;;66.90;34.20;;;;;;;10.95;39.22;100049.58;232686;1217;140356;-60
2022/03/25 22:34:56;;;;;;;61.40;34.10;;;;;;;10.90;39.01;100049.84;233156;1217;140033;-59
2022/03/25 22:40:03;;;;;;;69.00;34.80;;;;;;;10.81;38.86;100056.08;233297;1217;140904;-60
2022/03/25 22:45:06;;;;;;;64.20;33.70;;;;;;;10.76;39.20;100057.05;233144;1217;140369;-58
2022/03/25 22:50:10;;;;;;;69.20;35.60;;;;;;;10.71;39.25;100052.84;233224;1217;141642;-59
2022/03/25 22:55:13;;;;;;;69.50;33.80;;;;;;;10.68;39.47;100051.75;233204;1217;140406;-59
2022/03/25 23:00:44;;;;;;;57.70;32.00;;;;;;;10.60;39.53;100050.14;233293;1217;141548;-60